Aviation Digital Data Service (ADDS)

Output produced by METARs form (0502 UTC 16 February 2019)
found at http://www.aviationweather.gov/metar/data/
 
Forecast for: ETAR (RAMSTEIN (USAFB), DE)
Text: TAF ETAR 160203Z 1602/1708 VRB06KT 5000 BR SKC QNH3035INS
Forecast period: 0200 to 0900 UTC 16 February 2019
Forecast type: FROM: standard forecast or significant change
Winds: variable direction winds at 7 MPH (6 knots; 3.1 m/s)
Visibility: 3 miles (5 km)
Clouds: clear skies
Weather: BR  (mist)
Text: BECMG 1609/1610 VRB06KT 9999 NSW SKC QNH3030INS
Forecast period: 0900 UTC 16 February 2019 to 0200 UTC 17 February 2019
Forecast type: BECOMING: Conditions expected to become as follows by 1000 UTC 16 February 2019
Winds: variable direction winds at 7 MPH (6 knots; 3.1 m/s)
Visibility: 6 or more miles 10+ km)
Clouds: clear skies
Weather: NSW  (no significant weather)
Text: BECMG 1702/1703 VRB06KT 5000 BR SKC QNH3027INS
Forecast period: 0200 to 0800 UTC 17 February 2019
Forecast type: BECOMING: Conditions expected to become as follows by 0300 UTC 17 February 2019
Winds: variable direction winds at 7 MPH (6 knots; 3.1 m/s)
Visibility: 3 miles (5 km)
Clouds: clear skies
Weather: BR  (mist)
Text: TEMPO 1705/1708 3200 BR TX12/1613Z TNM06/1606Z
Forecast period: 0500 to 0800 UTC 17 February 2019
Forecast type: TEMPORARY: The following changes expected for less than half the time period
Visibility: 1.99 miles (3.20 km)
Ceiling: unknown
Clouds: missing
Weather: BR  (mist)